Time;durP1;ratioP1;P1;durP2;ratioP2;P2;SDS_P1;SDS_P2;PMS_P1;PMS_P2;Temp;Humidity;BMP_temperature;BMP_pressure;BME280_temperature;BME280_humidity;BME280_pressure;Samples;Min_cycle;Max_cycle;Signal;HPM_P1;HPM_P2
2023/10/18 00:00:28;;;;;;;;;20.25;18.25;;;;;8.55;78.69;101409.31;5042562;28;11194;-70
2023/10/18 00:02:55;;;;;;;;;17.75;16.25;;;;;8.58;79.15;101400.91;5014630;28;11477;-71
2023/10/18 00:05:24;;;;;;;;;22.00;19.00;;;;;8.58;79.24;101403.59;5038012;28;13876;-71
2023/10/18 00:07:56;;;;;;;;;24.50;21.25;;;;;8.59;79.46;101400.78;5049239;28;11244;-70
2023/10/18 00:10:24;;;;;;;;;19.50;17.75;;;;;8.65;79.49;101400.09;5004666;28;12081;-70
2023/10/18 00:12:55;;;;;;;;;18.75;18.00;;;;;8.69;79.23;101399.75;5037130;28;11563;-71
2023/10/18 00:15:22;;;;;;;;;23.25;21.25;;;;;8.66;79.37;101392.88;5045266;28;11189;-70
2023/10/18 00:17:49;;;;;;;;;16.25;16.25;;;;;8.71;79.77;101401.28;5029276;28;11214;-71
2023/10/18 00:20:19;;;;;;;;;22.00;17.75;;;;;8.69;79.40;101400.59;5040207;28;11459;-71
2023/10/18 00:22:46;;;;;;;;;24.50;21.50;;;;;8.67;79.33;101391.88;5047698;28;11217;-71
2023/10/18 00:25:12;;;;;;;;;18.00;16.75;;;;;8.63;79.71;101386.00;5040535;28;11089;-71
2023/10/18 00:27:45;;;;;;;;;22.25;20.00;;;;;8.63;79.88;101393.22;5039050;28;11462;-71
2023/10/18 00:30:12;;;;;;;;;24.00;22.75;;;;;8.62;79.40;101383.47;5013245;28;11539;-71
2023/10/18 00:32:43;;;;;;;;;21.75;20.00;;;;;8.56;79.89;101381.47;5027438;28;11503;-71
2023/10/18 00:35:20;;;;;;;;;23.00;20.00;;;;;8.56;80.44;101374.25;5028880;28;11480;-71
2023/10/18 00:37:49;;;;;;;;;19.75;19.25;;;;;8.58;80.21;101376.75;5017667;28;11435;-71
2023/10/18 00:43:16;;;;;;;;;24.00;21.50;;;;;8.49;79.81;101377.78;5021696;28;11496;-70
2023/10/18 00:45:47;;;;;;;;;26.25;19.50;;;;;8.47;80.13;101375.28;5039296;28;11320;-70
2023/10/18 00:48:19;;;;;;;;;27.75;21.75;;;;;8.53;80.17;101376.44;5002631;28;11461;-70
2023/10/18 00:50:48;;;;;;;;;24.50;23.00;;;;;8.57;79.92;101372.41;5031710;28;11155;-70
2023/10/18 00:53:30;;;;;;;;;20.25;19.00;;;;;8.55;79.28;101369.06;5023999;28;11481;-70
2023/10/18 00:56:00;;;;;;;;;20.00;17.25;;;;;8.50;79.35;101366.88;5038863;28;11475;-70
2023/10/18 00:58:29;;;;;;;;;29.25;24.00;;;;;8.47;79.95;101359.19;5019548;28;11298;-70
2023/10/18 01:00:58;;;;;;;;;25.25;18.75;;;;;8.47;79.84;101361.00;5044306;28;11488;-70
2023/10/18 01:03:32;;;;;;;;;25.00;23.25;;;;;8.44;80.05;101353.31;5019319;28;11474;-70
2023/10/18 01:06:08;;;;;;;;;24.00;21.25;;;;;8.47;79.81;101355.63;5020018;28;11487;-69
2023/10/18 01:08:38;;;;;;;;;28.25;24.00;;;;;8.48;79.88;101351.97;5023848;28;11477;-70
2023/10/18 01:11:07;;;;;;;;;19.50;19.00;;;;;8.46;79.44;101348.59;5020328;28;11508;-69
2023/10/18 01:13:40;;;;;;;;;20.25;17.25;;;;;8.46;78.94;101345.91;5048940;28;11477;-69
2023/10/18 01:16:14;;;;;;;;;25.00;23.00;;;;;8.41;79.99;101339.22;5026423;28;11343;-70
2023/10/18 01:18:43;;;;;;;;;26.00;22.50;;;;;8.38;79.75;101336.84;5045718;28;11491;-70
2023/10/18 01:21:17;;;;;;;;;27.00;23.50;;;;;8.37;79.83;101327.13;5003954;28;11661;-70
2023/10/18 01:23:49;;;;;;;;;21.25;19.75;;;;;8.42;79.62;101323.94;5019832;28;11515;-69
2023/10/18 01:26:21;;;;;;;;;23.75;23.00;;;;;8.42;80.18;101323.94;5024810;28;11586;-70
2023/10/18 01:28:49;;;;;;;;;21.50;15.00;;;;;8.45;79.49;101328.97;5026390;28;11507;-70
2023/10/18 01:31:15;;;;;;;;;24.50;21.50;;;;;8.46;80.04;101321.75;5024932;28;11554;-70
2023/10/18 01:33:43;;;;;;;;;24.50;22.00;;;;;8.46;79.30;101324.44;5020543;28;11203;-70
2023/10/18 01:36:14;;;;;;;;;20.50;18.00;;;;;8.49;79.84;101318.75;5021632;28;11487;-70
2023/10/18 01:38:46;;;;;;;;;19.00;17.25;;;;;8.48;79.57;101320.59;5046799;28;11261;-70
2023/10/18 01:41:25;;;;;;;;;15.75;14.75;;;;;8.51;79.37;101325.63;5032312;28;11092;-70
2023/10/18 01:43:53;;;;;;;;;18.75;16.50;;;;;8.55;79.25;101328.81;5020793;28;11370;-70
2023/10/18 01:46:20;;;;;;;;;21.00;19.50;;;;;8.51;79.26;101324.81;5021395;28;11259;-70
2023/10/18 01:48:50;;;;;;;;;25.50;23.25;;;;;8.45;80.07;101314.72;5038431;28;11499;-70
2023/10/18 01:51:19;;;;;;;;;22.00;20.75;;;;;8.48;79.33;101314.41;5016170;28;11634;-70
2023/10/18 01:53:46;;;;;;;;;22.25;19.75;;;;;8.47;79.03;101313.56;5028828;28;11462;-69
2023/10/18 01:56:17;;;;;;;;;28.00;26.00;;;;;8.39;79.47;101306.34;5024448;28;11262;-70
2023/10/18 01:58:46;;;;;;;;;28.00;25.75;;;;;8.35;79.46;101305.00;5010522;28;12360;-70
2023/10/18 02:01:16;;;;;;;;;18.25;18.25;;;;;8.34;80.04;101297.91;5009844;28;11474;-70
2023/10/18 02:03:44;;;;;;;;;23.25;21.50;;;;;8.34;79.45;101294.41;5035292;28;11467;-69
2023/10/18 02:06:14;;;;;;;;;19.25;18.25;;;;;8.33;79.72;101298.94;5034396;28;11486;-70
2023/10/18 02:08:41;;;;;;;;;22.75;20.50;;;;;8.32;79.37;101302.63;5013373;28;11587;-70
2023/10/18 02:11:09;;;;;;;;;22.50;20.75;;;;;8.28;79.51;101295.09;5024305;28;11445;-69
2023/10/18 02:13:39;;;;;;;;;20.25;19.00;;;;;8.32;79.12;101296.44;5026685;28;11486;-70
2023/10/18 02:16:14;;;;;;;;;25.50;19.50;;;;;8.28;79.29;101290.56;5024054;28;12307;-70
2023/10/18 02:18:41;;;;;;;;;19.75;19.50;;;;;8.28;79.81;101285.19;5042789;28;11704;-70
2023/10/18 02:21:08;;;;;;;;;17.75;16.25;;;;;8.32;79.18;101283.84;5039469;28;11486;-70
2023/10/18 02:23:34;;;;;;;;;18.25;18.00;;;;;8.36;79.26;101289.72;5029021;28;11459;-70
2023/10/18 02:26:22;;;;;;;;;22.00;19.25;;;;;8.28;78.92;101281.69;5046761;28;11468;-70
2023/10/18 02:28:49;;;;;;;;;25.50;24.50;;;;;8.21;79.00;101288.72;5022416;28;11502;-70
2023/10/18 02:31:21;;;;;;;;;17.75;16.00;;;;;8.13;79.71;101281.50;5016766;28;11475;-70
2023/10/18 02:33:48;;;;;;;;;15.75;15.75;;;;;8.09;80.09;101267.59;5037672;28;11244;-69
2023/10/18 02:36:21;;;;;;;;;22.25;22.25;;;;;8.12;80.73;101266.44;5033710;28;11516;-70
2023/10/18 02:38:53;;;;;;;;;19.50;19.50;;;;;8.15;79.77;101263.44;5032533;28;11473;-70
2023/10/18 02:41:26;;;;;;;;;21.00;17.25;;;;;8.17;80.18;101248.00;5023767;28;11309;-70
2023/10/18 02:43:54;;;;;;;;;15.00;15.00;;;;;8.22;80.49;101253.69;5033415;28;11279;-70
2023/10/18 02:46:25;;;;;;;;;21.75;17.25;;;;;8.23;80.15;101254.53;5028634;28;11457;-69
2023/10/18 02:48:57;;;;;;;;;24.75;22.00;;;;;8.24;80.25;101256.22;5042182;28;11524;-70
2023/10/18 02:51:24;;;;;;;;;25.00;22.25;;;;;8.21;80.02;101243.97;5028679;28;11466;-70
2023/10/18 02:53:53;;;;;;;;;28.25;23.75;;;;;8.20;79.04;101238.78;5033071;28;11530;-70
2023/10/18 02:56:20;;;;;;;;;28.50;21.25;;;;;8.13;79.78;101231.41;5023364;28;11503;-70
2023/10/18 02:58:47;;;;;;;;;18.50;18.50;;;;;8.11;79.61;101227.22;5045113;28;11490;-70
2023/10/18 03:01:20;;;;;;;;;19.00;17.00;;;;;8.08;79.41;101223.03;5025442;28;11471;-70
2023/10/18 03:03:49;;;;;;;;;25.75;22.50;;;;;8.05;78.86;101220.69;5039341;28;11461;-70
2023/10/18 03:06:16;;;;;;;;;23.50;20.50;;;;;7.90;79.48;101219.69;5020027;28;11480;-70
2023/10/18 03:08:44;;;;;;;;;22.00;19.50;;;;;7.89;79.88;101215.31;5048879;28;11460;-70
2023/10/18 03:11:13;;;;;;;;;26.25;21.75;;;;;7.82;79.90;101209.81;5016713;28;11462;-70
2023/10/18 03:13:42;;;;;;;;;20.25;18.00;;;;;7.84;80.27;101198.91;5023601;28;12234;-70
2023/10/18 03:18:44;;;;;;;;;23.25;22.00;;;;;7.81;80.23;101192.03;5042987;28;11509;-70
2023/10/18 03:21:20;;;;;;;;;21.75;19.25;;;;;7.79;80.03;101199.41;5025707;28;11546;-70
2023/10/18 03:23:51;;;;;;;;;29.50;21.50;;;;;7.80;80.39;101208.28;5019408;28;11459;-70
2023/10/18 03:26:22;;;;;;;;;22.75;19.75;;;;;7.85;79.99;101200.59;5038420;28;11455;-70
2023/10/18 03:28:52;;;;;;;;;22.00;21.00;;;;;7.90;80.68;101193.72;5029856;28;12250;-70
2023/10/18 03:34:02;;;;;;;;;28.25;23.25;;;;;7.90;79.45;101177.66;5040466;28;11658;-70
2023/10/18 03:36:32;;;;;;;;;30.00;24.75;;;;;7.82;79.46;101184.81;5022408;28;11506;-70
2023/10/18 03:39:00;;;;;;;;;21.75;21.50;;;;;7.78;80.34;101181.69;5018922;28;11535;-70
2023/10/18 03:41:40;;;;;;;;;22.50;20.00;;;;;7.81;80.42;101185.84;5049240;28;11555;-71
2023/10/18 03:44:08;;;;;;;;;27.50;24.25;;;;;7.82;79.73;101182.16;5000116;28;12177;-71
2023/10/18 03:46:38;;;;;;;;;25.50;23.75;;;;;7.73;79.72;101173.28;5040798;28;11485;-70
2023/10/18 03:49:16;;;;;;;;;28.50;25.50;;;;;7.67;80.65;101168.59;5008347;28;11455;-70
2023/10/18 03:51:46;;;;;;;;;28.50;25.75;;;;;7.63;79.93;101172.63;5020340;28;11570;-69
2023/10/18 03:54:14;;;;;;;;;27.00;22.25;;;;;7.62;80.15;101177.16;5041616;28;11546;-69
2023/10/18 03:56:43;;;;;;;;;29.75;27.50;;;;;7.54;80.68;101169.09;5010184;28;11488;-69
2023/10/18 03:59:19;;;;;;;;;24.25;19.75;;;;;7.59;80.31;101172.13;5009974;28;11486;-69
2023/10/18 04:02:04;;;;;;;;;28.50;24.25;;;;;7.60;80.00;101163.06;5041799;28;11501;-70
2023/10/18 04:04:37;;;;;;;;;29.00;26.50;;;;;7.65;79.52;101170.59;5039264;28;12278;-69
2023/10/18 04:07:12;;;;;;;;;22.00;20.25;;;;;7.60;79.29;101162.22;5022390;28;11479;-68
2023/10/18 04:09:53;;;;;;;;;31.00;24.50;;;;;7.51;79.30;101153.34;5023770;28;11601;-69
2023/10/18 04:12:22;;;;;;;;;23.50;20.50;;;;;7.36;79.85;101145.13;5025592;28;11535;-68
2023/10/18 04:14:52;;;;;;;;;21.25;20.75;;;;;7.35;79.60;101139.94;5036299;28;11523;-68
2023/10/18 04:17:31;;;;;;;;;27.25;22.50;;;;;7.31;79.58;101130.56;5036653;28;11569;-70
2023/10/18 04:20:07;;;;;;;;;25.50;21.75;;;;;7.39;81.03;101126.06;5029933;28;12291;-69
2023/10/18 04:22:36;;;;;;;;;23.50;20.25;;;;;7.53;80.62;101119.19;5021283;28;11476;-68
2023/10/18 04:25:14;;;;;;;;;26.50;22.00;;;;;7.52;80.02;101124.72;5012634;28;11502;-68
2023/10/18 04:27:42;;;;;;;;;24.00;22.25;;;;;7.48;80.34;101115.34;5026769;28;11476;-68
2023/10/18 04:30:11;;;;;;;;;30.75;24.50;;;;;7.47;80.34;101119.88;5015308;28;11603;-68
2023/10/18 04:32:38;;;;;;;;;25.50;21.50;;;;;7.54;80.34;101109.34;5033450;28;11491;-69
2023/10/18 04:35:09;;;;;;;;;22.50;21.25;;;;;7.58;80.20;101098.13;5031788;28;11460;-68
2023/10/18 04:37:36;;;;;;;;;33.00;27.75;;;;;7.56;80.79;101096.59;5029233;28;11468;-68
2023/10/18 04:40:06;;;;;;;;;22.25;21.25;;;;;7.53;80.72;101097.75;5018546;28;11640;-67
2023/10/18 04:42:33;;;;;;;;;27.00;24.50;;;;;7.55;80.00;101089.56;5021430;28;11465;-68
2023/10/18 04:45:16;;;;;;;;;24.75;21.50;;;;;7.57;80.78;101088.38;5020799;28;12226;-67
2023/10/18 04:47:42;;;;;;;;;22.25;21.75;;;;;7.64;81.31;101088.56;5026562;28;11490;-68
2023/10/18 04:50:11;;;;;;;;;21.75;18.75;;;;;7.66;80.07;101079.34;5022716;28;11519;-68
2023/10/18 04:52:41;;;;;;;;;27.00;22.00;;;;;7.62;80.50;101078.00;5019087;28;11549;-68
2023/10/18 04:55:11;;;;;;;;;28.75;24.25;;;;;7.58;80.03;101060.59;4992345;28;11592;-68
2023/10/18 04:57:39;;;;;;;;;21.75;21.25;;;;;7.52;80.29;101058.59;5021726;28;11487;-69
2023/10/18 05:00:35;;;;;;;;;24.00;21.50;;;;;7.57;80.66;101060.75;5029716;28;11468;-68
2023/10/18 05:02:58;;;;;;;;;23.25;21.75;;;;;7.53;80.69;101051.38;5042316;28;11520;-68
2023/10/18 05:05:28;;;;;;;;;26.00;24.75;;;;;7.46;79.76;101056.59;5023461;28;11475;-68
2023/10/18 05:07:54;;;;;;;;;28.00;27.00;;;;;7.39;80.46;101045.72;5037403;28;12227;-70
2023/10/18 05:10:21;;;;;;;;;29.75;18.75;;;;;7.43;80.55;101047.06;5033859;28;11528;-68
2023/10/18 05:13:01;;;;;;;;;30.00;27.75;;;;;7.42;79.52;101055.25;5029415;28;11550;-68
2023/10/18 05:15:32;;;;;;;;;25.25;21.25;;;;;7.39;80.36;101051.06;5032539;28;11454;-67
2023/10/18 05:18:05;;;;;;;;;27.00;24.00;;;;;7.40;80.27;101042.03;5039693;28;11432;-70
2023/10/18 05:23:24;;;;;;;;;26.25;24.25;;;;;7.48;79.79;101051.06;5026926;28;11561;-70
2023/10/18 05:25:56;;;;;;;;;26.25;21.50;;;;;7.48;79.88;101051.06;5039685;28;11482;-68
2023/10/18 05:28:28;;;;;;;;;25.00;22.75;;;;;7.49;80.07;101050.88;5020072;28;11530;-68
2023/10/18 05:44:00;;;;;;;;;27.00;22.00;;;;;7.42;79.04;101029.31;5038848;28;11611;-68
2023/10/18 05:46:34;;;;;;;;;21.00;19.00;;;;;7.40;79.71;101014.41;5025896;28;12021;-68
2023/10/18 05:49:01;;;;;;;;;24.75;22.50;;;;;7.40;79.87;101017.91;5033210;28;11593;-68
2023/10/18 05:54:04;;;;;;;;;22.25;21.00;;;;;7.36;79.99;101011.22;5008613;28;11519;-68
2023/10/18 05:56:32;;;;;;;;;24.25;24.25;;;;;7.37;80.67;101004.03;5044785;28;11532;-68
2023/10/18 06:01:45;;;;;;;;;29.25;25.75;;;;;7.30;80.07;101014.59;5043523;28;11457;-69
2023/10/18 06:04:13;;;;;;;;;18.00;17.00;;;;;7.38;80.34;101011.91;5039655;28;11515;-69
2023/10/18 06:06:40;;;;;;;;;27.25;22.50;;;;;7.39;79.97;101016.25;5031915;28;12208;-68
2023/10/18 06:11:54;;;;;;;;;26.00;25.50;;;;;7.32;79.41;100998.34;5014298;28;11630;-69
2023/10/18 06:14:40;;;;;;;;;22.50;22.50;;;;;7.32;80.14;100996.50;5014334;28;11544;-69
2023/10/18 06:17:19;;;;;;;;;24.25;20.00;;;;;7.36;79.61;100991.66;5014319;28;11527;-69
2023/10/18 06:19:47;;;;;;;;;21.50;21.50;;;;;7.24;79.67;100985.81;5014339;28;11488;-68
2023/10/18 06:22:29;;;;;;;;;27.25;23.75;;;;;7.35;79.50;100988.13;5013934;28;11486;-69
2023/10/18 06:25:03;;;;;;;;;20.25;18.00;;;;;7.35;79.83;100976.59;5014334;28;11628;-69
2023/10/18 06:27:38;;;;;;;;;18.50;17.25;;;;;7.36;79.45;100972.91;5030388;28;11438;-68
2023/10/18 06:30:14;;;;;;;;;29.00;22.50;;;;;7.33;79.45;100965.22;5031820;28;11460;-69
2023/10/18 06:32:43;;;;;;;;;29.25;25.00;;;;;7.41;79.54;100970.53;5013855;28;11521;-69
2023/10/18 06:35:26;;;;;;;;;18.00;15.75;;;;;7.42;79.37;100970.41;5031109;28;11512;-69
2023/10/18 06:37:54;;;;;;;;;17.50;17.00;;;;;7.44;79.68;100965.69;5030164;28;11441;-69
2023/10/18 06:40:22;;;;;;;;;25.50;22.50;;;;;7.43;78.20;100957.84;5031584;28;11601;-68
2023/10/18 06:42:49;;;;;;;;;26.75;20.00;;;;;7.40;77.86;100955.50;5031528;28;11451;-67
2023/10/18 06:45:17;;;;;;;;;26.75;21.50;;;;;7.36;78.86;100952.31;5013815;28;11473;-70
2023/10/18 06:47:47;;;;;;;;;23.75;19.00;;;;;7.36;78.65;100941.59;5031157;28;11453;-69
2023/10/18 06:50:19;;;;;;;;;22.25;21.50;;;;;7.36;78.68;100943.44;5013531;28;11471;-70
2023/10/18 06:52:52;;;;;;;;;25.25;21.50;;;;;7.29;79.08;100929.94;5031553;28;11475;-69
2023/10/18 06:55:21;;;;;;;;;22.75;20.00;;;;;7.31;78.60;100933.25;5013213;28;11498;-70
2023/10/18 06:57:49;;;;;;;;;33.25;24.25;;;;;7.27;78.87;100931.09;5013177;28;11602;-69
2023/10/18 07:00:16;;;;;;;;;25.75;24.50;;;;;7.25;78.49;100933.94;5031236;28;11483;-68
2023/10/18 07:02:44;;;;;;;;;21.75;21.75;;;;;7.22;78.89;100934.28;5013273;28;11754;-68
2023/10/18 07:05:11;;;;;;;;;19.25;17.75;;;;;7.28;78.64;100925.56;5031238;28;11453;-68
2023/10/18 07:07:37;;;;;;;;;18.25;15.75;;;;;7.29;78.94;100921.91;5012948;28;11475;-68
2023/10/18 07:10:05;;;;;;;;;21.25;20.25;;;;;7.32;78.12;100929.56;5030856;28;11456;-68
2023/10/18 07:12:44;;;;;;;;;22.00;22.00;;;;;7.31;78.40;100925.22;5013441;28;11458;-68
2023/10/18 07:15:16;;;;;;;;;26.50;23.25;;;;;7.27;78.65;100918.53;5031223;28;11497;-68
2023/10/18 07:17:46;;;;;;;;;23.00;17.50;;;;;7.42;78.88;100926.72;5012747;28;11483;-69
2023/10/18 07:20:16;;;;;;;;;27.75;24.25;;;;;7.44;77.79;100916.66;5030773;28;11468;-68
2023/10/18 07:22:46;;;;;;;;;24.75;22.00;;;;;7.39;77.49;100914.50;5012891;28;11465;-68
2023/10/18 07:25:20;;;;;;;;;20.25;17.00;;;;;7.42;78.00;100921.34;5012857;28;12344;-69
2023/10/18 07:27:47;;;;;;;;;20.25;18.25;;;;;7.48;78.24;100920.66;5030479;28;11464;-68
2023/10/18 07:30:14;;;;;;;;;28.25;22.50;;;;;7.48;77.53;100906.44;4996630;28;11594;-69
2023/10/18 07:32:47;;;;;;;;;21.25;18.50;;;;;7.55;77.77;100907.41;5029074;28;11491;-69
2023/10/18 07:35:36;;;;;;;;;25.00;23.25;;;;;7.51;77.13;100901.56;5013069;28;11530;-69
2023/10/18 07:38:01;;;;;;;;;18.25;16.75;;;;;7.56;77.83;100898.38;5029005;28;12223;-69
2023/10/18 07:40:33;;;;;;;;;20.75;19.25;;;;;7.59;77.23;100890.00;5030218;28;11489;-69
2023/10/18 07:43:00;;;;;;;;;25.75;21.50;;;;;7.55;76.76;100889.50;5030392;28;11545;-68
2023/10/18 07:45:28;;;;;;;;;20.25;18.75;;;;;7.50;77.34;100881.16;5030707;28;11484;-68
2023/10/18 07:47:54;;;;;;;;;24.25;18.75;;;;;7.58;76.93;100874.94;5029322;28;11461;-69
2023/10/18 07:53:06;;;;;;;;;22.75;19.75;;;;;7.62;77.18;100871.72;5030157;28;11669;-69
2023/10/18 07:55:37;;;;;;;;;25.25;22.75;;;;;7.67;75.45;100877.38;5030118;28;11591;-69
2023/10/18 07:58:17;;;;;;;;;21.75;20.50;;;;;7.62;75.83;100866.38;5012060;28;11714;-68
2023/10/18 08:03:30;;;;;;;;;19.75;18.00;;;;;7.67;75.91;100869.34;5030035;28;12340;-71
2023/10/18 08:05:59;;;;;;;;;22.25;20.25;;;;;7.73;76.57;100873.16;5012739;28;12179;-70
2023/10/18 08:08:26;;;;;;;;;19.75;19.00;;;;;7.75;75.65;100873.84;5029832;28;11488;-70
2023/10/18 08:10:56;;;;;;;;;22.50;20.00;;;;;7.74;75.12;100871.31;5030003;28;12167;-67
2023/10/18 08:13:26;;;;;;;;;22.25;18.50;;;;;7.73;74.78;100870.50;5029696;28;11415;-67
2023/10/18 08:15:53;;;;;;;;;20.50;20.25;;;;;7.76;75.25;100864.78;5030080;28;11495;-69
2023/10/18 08:21:18;;;;;;;;;19.50;18.00;;;;;7.91;75.25;100859.53;5011870;28;11413;-68
2023/10/18 08:23:44;;;;;;;;;17.25;16.25;;;;;7.93;74.06;100852.13;5011718;28;11945;-68
2023/10/18 08:26:12;;;;;;;;;18.00;17.25;;;;;7.92;74.82;100848.63;5029353;28;12284;-69
2023/10/18 08:28:38;;;;;;;;;20.50;20.00;;;;;7.99;74.59;100835.34;5029411;28;11482;-68
2023/10/18 08:31:33;;;;;;;;;26.25;21.75;;;;;7.99;73.12;100837.19;5012317;28;11585;-68
2023/10/18 08:34:10;;;;;;;;;19.75;19.25;;;;;7.99;73.69;100835.34;5029263;28;11609;-68
2023/10/18 08:36:38;;;;;;;;;22.25;18.00;;;;;7.94;73.65;100829.69;5011392;28;12174;-69
2023/10/18 08:39:06;;;;;;;;;21.75;19.00;;;;;8.02;73.52;100839.50;5011857;28;11468;-69
2023/10/18 08:41:33;;;;;;;;;19.75;17.00;;;;;8.09;73.44;100832.44;5029082;28;11525;-70
2023/10/18 08:44:08;;;;;;;;;23.50;15.75;;;;;8.16;73.76;100815.44;4995350;28;11280;-68
2023/10/18 08:46:41;;;;;;;;;14.50;14.50;;;;;8.32;73.81;100825.22;5027839;28;11129;-70
2023/10/18 08:49:10;;;;;;;;;19.50;19.50;;;;;8.32;72.32;100824.38;5011538;28;11100;-69
2023/10/18 08:51:38;;;;;;;;;19.00;15.00;;;;;8.24;72.36;100814.56;5011567;28;12187;-70
2023/10/18 08:54:17;;;;;;;;;19.00;14.50;;;;;8.32;72.21;100819.84;5011378;28;12002;-69
2023/10/18 08:56:48;;;;;;;;;23.00;19.00;;;;;8.24;71.69;100817.25;5011075;28;11174;-69
2023/10/18 08:59:20;;;;;;;;;18.50;16.75;;;;;8.24;72.42;100819.09;5028907;28;11410;-69
2023/10/18 09:04:54;;;;;;;;;22.75;16.50;;;;;8.34;72.45;100804.41;4970883;28;11315;-70
2023/10/18 09:07:44;;;;;;;;;21.25;18.50;;;;;8.40;71.50;100801.03;4987512;28;11227;-69
2023/10/18 09:10:13;;;;;;;;;23.25;20.00;;;;;8.40;71.81;100795.69;4981863;28;12067;-69
2023/10/18 09:15:27;;;;;;;;;27.50;18.50;;;;;8.61;70.85;100783.41;5029408;28;11282;-70
2023/10/18 09:18:02;;;;;;;;;18.00;15.25;;;;;8.63;71.02;100773.34;5011787;28;11290;-69
2023/10/18 09:20:30;;;;;;;;;23.00;20.00;;;;;8.62;71.18;100767.13;5029459;28;11090;-69
2023/10/18 09:23:14;;;;;;;;;22.25;16.25;;;;;8.68;70.92;100754.84;5029018;28;11281;-69
2023/10/18 09:25:50;;;;;;;;;15.75;15.75;;;;;8.65;71.00;100763.25;5011190;28;11262;-69
2023/10/18 09:28:30;;;;;;;;;20.00;20.00;;;;;8.87;70.99;100764.19;5028741;28;11186;-69
2023/10/18 09:31:02;;;;;;;;;23.25;20.75;;;;;8.97;70.49;100759.38;5027712;28;11083;-70
2023/10/18 09:33:33;;;;;;;;;18.00;15.75;;;;;9.07;70.06;100769.81;5028832;28;11098;-70
2023/10/18 09:36:03;;;;;;;;;25.75;18.75;;;;;8.98;70.51;100760.19;5028593;28;11027;-69
2023/10/18 09:38:39;;;;;;;;;15.50;15.50;;;;;9.01;69.42;100743.72;5011110;28;10978;-70
2023/10/18 09:41:06;;;;;;;;;18.50;17.50;;;;;9.01;69.87;100741.03;5028877;28;11067;-71
2023/10/18 09:43:33;;;;;;;;;16.00;14.75;;;;;9.14;70.20;100746.59;5028698;28;11124;-70
2023/10/18 09:46:00;;;;;;;;;18.50;17.25;;;;;9.23;69.59;100745.44;5028778;28;11010;-70
2023/10/18 09:48:32;;;;;;;;;16.00;16.00;;;;;9.20;69.95;100727.03;5011070;28;10925;-70
2023/10/18 09:51:06;;;;;;;;;23.25;22.00;;;;;9.23;69.53;100734.69;5028854;28;10922;-70
2023/10/18 09:53:43;;;;;;;;;20.50;17.00;;;;;9.18;69.86;100721.00;5011270;28;11065;-69
2023/10/18 09:56:12;;;;;;;;;21.00;17.50;;;;;9.26;69.49;100720.06;5028599;28;10997;-70
2023/10/18 09:58:42;;;;;;;;;15.25;14.25;;;;;9.26;69.95;100707.47;5010740;28;11114;-70
2023/10/18 10:01:56;;;;;;;;;18.75;18.75;;;;;9.30;69.75;100700.72;5010702;28;11745;-69
2023/10/18 10:04:21;;;;;;;;;17.00;15.25;;;;;9.30;70.11;100689.97;5031288;23;11156;-68
2023/10/18 10:06:52;;;;;;;;;16.50;16.25;;;;;9.34;69.34;100693.94;5007086;28;11092;-69
2023/10/18 10:09:28;;;;;;;;;21.25;19.75;;;;;9.41;69.26;100686.78;5006643;28;10854;-68
2023/10/18 10:11:58;;;;;;;;;24.25;21.25;;;;;9.35;69.62;100681.31;5009751;28;11115;-69
2023/10/18 10:14:29;;;;;;;;;27.50;23.75;;;;;9.44;69.36;100673.97;5011646;28;10887;-69
2023/10/18 10:17:05;;;;;;;;;16.00;16.00;;;;;9.57;69.59;100668.75;5011492;28;11066;-69
2023/10/18 10:19:37;;;;;;;;;19.00;15.50;;;;;9.54;68.50;100666.44;5011467;28;11743;-69
2023/10/18 10:22:05;;;;;;;;;20.00;16.00;;;;;9.55;68.72;100668.09;5011745;28;10881;-69
2023/10/18 10:24:43;;;;;;;;;19.75;15.50;;;;;9.54;68.79;100664.59;5011340;28;10903;-69
2023/10/18 10:32:58;;;;;;;;;20.50;16.75;;;;;9.79;67.61;100635.44;5011365;28;10862;-68
2023/10/18 10:35:32;;;;;;;;;18.25;15.75;;;;;9.83;68.49;100630.53;5009959;28;10987;-68
2023/10/18 10:38:05;;;;;;;;;21.25;20.00;;;;;9.89;67.88;100630.59;5010955;28;10871;-68
2023/10/18 10:43:18;;;;;;;;;21.00;17.00;;;;;9.80;68.30;100622.84;5009862;28;10888;-68
2023/10/18 10:48:28;;;;;;;;;18.50;16.00;;;;;9.91;67.58;100617.75;5010883;28;10868;-68
2023/10/18 10:50:59;;;;;;;;;20.00;16.50;;;;;10.00;67.29;100614.94;5011081;28;10815;-68
2023/10/18 10:53:44;;;;;;;;;18.00;15.50;;;;;10.14;67.25;100611.31;5009988;28;11541;-68
2023/10/18 10:56:17;;;;;;;;;16.00;13.50;;;;;10.17;67.19;100608.25;5010997;28;10891;-68
2023/10/18 10:58:54;;;;;;;;;15.00;12.75;;;;;10.21;68.00;100604.13;5009568;28;10667;-68
2023/10/18 11:01:39;;;;;;;;;13.50;13.50;;;;;10.20;67.85;100589.00;5010726;28;10697;-69
2023/10/18 11:04:24;;;;;;;;;13.50;13.50;;;;;10.36;66.03;100582.50;5010942;28;10760;-69
2023/10/18 11:06:57;;;;;;;;;12.75;12.75;;;;;10.39;64.76;100580.22;5010901;28;10634;-68
2023/10/18 11:09:32;;;;;;;;;16.50;13.00;;;;;10.29;66.25;100573.53;5010764;28;10994;-68
2023/10/18 11:12:13;;;;;;;;;16.50;15.75;;;;;10.32;65.25;100555.16;5010989;28;10679;-68
2023/10/18 11:14:43;;;;;;;;;18.50;14.50;;;;;10.39;66.29;100545.25;5009176;28;10669;-68
2023/10/18 11:19:41;;;;;;;;;14.75;12.75;;;;;10.45;65.63;100530.19;5010610;28;10652;-68
2023/10/18 11:22:11;;;;;;;;;12.50;12.50;;;;;10.51;65.26;100526.69;5010359;28;10711;-68
2023/10/18 11:24:39;;;;;;;;;12.75;11.75;;;;;10.56;65.67;100526.06;5008883;28;10679;-68
2023/10/18 11:27:09;;;;;;;;;16.25;11.50;;;;;10.57;65.40;100525.88;5008764;28;10549;-68
2023/10/18 11:29:41;;;;;;;;;13.00;13.00;;;;;10.52;64.86;100512.19;5010620;28;10693;-68
2023/10/18 11:32:15;;;;;;;;;18.00;15.75;;;;;10.53;65.43;100502.25;5008832;28;10717;-68
2023/10/18 11:34:43;;;;;;;;;16.50;13.25;;;;;10.60;64.77;100497.72;5010004;28;10756;-68
2023/10/18 11:37:13;;;;;;;;;12.00;10.25;;;;;10.63;65.18;100489.25;5008806;28;10621;-68
2023/10/18 11:39:40;;;;;;;;;16.00;15.00;;;;;10.69;64.51;100482.19;5010223;28;10497;-68
2023/10/18 11:42:10;;;;;;;;;17.25;15.00;;;;;10.70;65.03;100470.44;5008788;28;10489;-68
2023/10/18 11:44:39;;;;;;;;;13.25;13.25;;;;;10.65;65.29;100462.94;5010231;28;10495;-68
2023/10/18 11:47:19;;;;;;;;;16.00;13.75;;;;;10.61;65.07;100456.31;5009911;28;10418;-68
2023/10/18 11:49:52;;;;;;;;;15.25;14.25;;;;;10.56;65.37;100464.16;5010051;28;10708;-68
2023/10/18 11:52:25;;;;;;;;;14.50;13.00;;;;;10.63;65.32;100447.00;5010141;28;11272;-68
2023/10/18 11:55:05;;;;;;;;;15.50;13.75;;;;;10.69;64.75;100448.03;5008681;28;10506;-68
2023/10/18 11:57:35;;;;;;;;;14.75;14.75;;;;;10.67;65.13;100436.66;5010106;28;10503;-69
2023/10/18 12:00:26;;;;;;;;;15.50;14.00;;;;;10.74;64.46;100434.81;5009979;28;11276;-68
2023/10/18 12:02:49;;;;;;;;;13.00;12.00;;;;;10.76;64.71;100421.97;5009496;28;10525;-68
2023/10/18 12:05:17;;;;;;;;;16.75;14.75;;;;;10.73;64.74;100419.66;5009851;28;10485;-68
2023/10/18 12:07:48;;;;;;;;;18.00;16.75;;;;;10.85;64.63;100415.34;5009444;28;10383;-68
2023/10/18 12:10:17;;;;;;;;;16.25;12.00;;;;;10.93;65.04;100421.56;5009457;28;10577;-68
2023/10/18 12:12:44;;;;;;;;;19.00;15.25;;;;;11.07;65.25;100407.88;5009554;28;10486;-68
2023/10/18 12:15:15;;;;;;;;;15.00;12.50;;;;;11.16;63.98;100408.50;5009477;28;10501;-68
2023/10/18 12:17:42;;;;;;;;;14.25;13.25;;;;;11.16;64.08;100392.34;5009567;28;10410;-68
2023/10/18 12:20:10;;;;;;;;;13.75;11.50;;;;;11.16;63.91;100397.72;4991764;28;10424;-68
2023/10/18 12:22:36;;;;;;;;;15.25;11.75;;;;;11.17;64.75;100387.78;5009615;28;10401;-68
2023/10/18 12:25:03;;;;;;;;;17.00;15.25;;;;;11.29;63.35;100384.22;5008008;28;10440;-68
2023/10/18 12:27:35;;;;;;;;;14.50;13.75;;;;;11.29;63.46;100381.53;5009115;28;10726;-67
2023/10/18 12:32:57;;;;;;;;;17.00;14.50;;;;;11.40;62.80;100361.22;5008894;28;10422;-68
2023/10/18 12:35:28;;;;;;;;;14.75;13.50;;;;;11.45;63.11;100356.00;5007793;28;10505;-68
2023/10/18 12:37:56;;;;;;;;;16.25;15.50;;;;;11.49;63.79;100351.84;5007728;28;10690;-68